Time;durP1;ratioP1;P1;durP2;ratioP2;P2;SDS_P1;SDS_P2;PMS_P1;PMS_P2;Temp;Humidity;BMP_temperature;BMP_pressure;BME280_temperature;BME280_humidity;BME280_pressure;Samples;Min_cycle;Max_cycle;Signal;HPM_P1;HPM_P2
2023/12/23 00:01:20;;;;;;;2.20;2.10;;;1.50;71.60;;;;;;5054180;28;20944;-65
2023/12/23 00:03:46;;;;;;;2.30;2.20;;;1.60;60.90;;;;;;5055931;28;20190;-65
2023/12/23 00:06:11;;;;;;;2.20;2.10;;;1.60;55.20;;;;;;5054041;28;20201;-65
2023/12/23 00:08:37;;;;;;;2.10;2.00;;;1.70;41.10;;;;;;5055806;28;20303;-65
2023/12/23 00:11:03;;;;;;;2.27;2.13;;;1.50;31.50;;;;;;5055540;28;20171;-65
2023/12/23 00:13:29;;;;;;;6.30;2.20;;;1.60;26.10;;;;;;5054975;28;20241;-65
2023/12/23 00:15:55;;;;;;;2.30;2.10;;;1.60;21.50;;;;;;5055117;28;20440;-65
2023/12/23 00:18:20;;;;;;;2.10;2.00;;;1.70;12.00;;;;;;5055560;28;20536;-67
2023/12/23 00:20:47;;;;;;;2.43;2.23;;;1.70;7.80;;;;;;5055225;28;20182;-65
2023/12/23 00:23:13;;;;;;;2.80;2.13;;;1.70;3.20;;;;;;5055499;28;20209;-66
2023/12/23 00:25:39;;;;;;;2.37;2.20;;;1.50;1.00;;;;;;5054502;28;20783;-66
2023/12/23 00:28:05;;;;;;;2.50;2.37;;;1.70;1.00;;;;;;5055347;28;20240;-65
2023/12/23 00:30:31;;;;;;;5.27;1.97;;;1.80;1.00;;;;;;5055148;28;20496;-66
2023/12/23 00:32:56;;;;;;;2.97;2.67;;;1.60;1.00;;;;;;5055053;28;20463;-66
2023/12/23 00:35:22;;;;;;;2.27;2.07;;;1.80;1.00;;;;;;5054638;28;20178;-65
2023/12/23 00:37:48;;;;;;;4.40;2.37;;;1.90;1.00;;;;;;5055160;28;20735;-66
2023/12/23 00:40:13;;;;;;;5.37;2.30;;;1.60;1.00;;;;;;5054621;28;20524;-65
2023/12/23 00:42:39;;;;;;;3.40;2.40;;;1.70;1.00;;;;;;5054106;28;20230;-67
2023/12/23 00:45:06;;;;;;;2.90;2.70;;;1.70;1.00;;;;;;5054603;28;20250;-67
2023/12/23 00:47:32;;;;;;;2.50;2.17;;;1.60;1.00;;;;;;5055120;28;20425;-66
2023/12/23 00:49:58;;;;;;;5.13;2.03;;;1.60;1.00;;;;;;5054841;28;20772;-69
2023/12/23 00:52:23;;;;;;;8.20;2.40;;;1.80;1.00;;;;;;5054787;28;20405;-66
2023/12/23 00:54:49;;;;;;;7.23;2.60;;;1.80;1.00;;;;;;5053533;28;20247;-65
2023/12/23 00:57:15;;;;;;;5.53;2.30;;;1.70;1.00;;;;;;5054749;28;20209;-66
2023/12/23 00:59:41;;;;;;;7.33;2.70;;;1.80;1.00;;;;;;5054559;28;20183;-67
2023/12/23 01:02:06;;;;;;;5.83;2.93;;;2.00;1.00;;;;;;5054977;28;20170;-66
2023/12/23 01:04:32;;;;;;;2.60;2.37;;;1.90;1.00;;;;;;5054087;28;20187;-76
2023/12/23 01:06:58;;;;;;;10.90;2.60;;;1.80;1.00;;;;;;5054731;28;20738;-66
2023/12/23 01:09:23;;;;;;;7.90;2.53;;;1.70;1.00;;;;;;5054490;28;20163;-65
2023/12/23 01:11:49;;;;;;;3.10;2.10;;;1.70;1.00;;;;;;5054234;28;20220;-66
2023/12/23 01:14:16;;;;;;;4.17;2.70;;;1.90;1.00;;;;;;5054559;28;20221;-65
2023/12/23 01:16:41;;;;;;;5.50;3.27;;;1.90;1.00;;;;;;5053720;28;20397;-65
2023/12/23 01:19:07;;;;;;;5.17;2.80;;;1.90;1.00;;;;;;5054248;28;20470;-66
2023/12/23 01:21:33;;;;;;;7.03;2.77;;;2.00;1.00;;;;;;5054502;28;20171;-68
2023/12/23 01:23:58;;;;;;;3.13;2.93;;;1.80;1.00;;;;;;5052949;28;20230;-65
2023/12/23 01:26:24;;;;;;;17.73;3.83;;;2.00;1.00;;;;;;5053129;28;20179;-69
2023/12/23 01:28:50;;;;;;;5.67;2.50;;;1.90;1.00;;;;;;5054122;28;20191;-69
2023/12/23 01:31:18;;;;;;;6.00;2.93;;;1.90;1.00;;;;;;5053582;28;20171;-68
2023/12/23 01:33:43;;;;;;;6.70;2.50;;;1.90;1.00;;;;;;5053721;28;20171;-67
2023/12/23 01:36:09;;;;;;;6.40;2.83;;;1.90;1.00;;;;;;5053526;28;20886;-66
2023/12/23 01:38:35;;;;;;;10.53;2.50;;;2.00;1.00;;;;;;5053784;28;20199;-66
2023/12/23 01:41:00;;;;;;;7.90;3.10;;;2.00;1.00;;;;;;5053825;28;20604;-66
2023/12/23 01:43:26;;;;;;;6.97;2.57;;;2.00;1.00;;;;;;5053795;28;20255;-65
2023/12/23 01:46:00;;;;;;;4.60;2.70;;;1.90;1.00;;;;;;5052962;28;20163;-66
2023/12/23 01:48:27;;;;;;;7.70;2.87;;;2.00;1.00;;;;;;5053788;28;20563;-66
2023/12/23 01:50:55;;;;;;;4.43;3.10;;;2.10;1.00;;;;;;5053553;28;20413;-66
2023/12/23 01:53:22;;;;;;;12.37;3.00;;;2.00;1.00;;;;;;5053497;28;20417;-66
2023/12/23 01:55:48;;;;;;;11.50;3.00;;;2.20;1.00;;;;;;5048787;28;21021;-66
2023/12/23 01:58:14;;;;;;;5.23;2.73;;;2.20;1.00;;;;;;5052439;28;20437;-66
2023/12/23 02:00:40;;;;;;;11.33;3.57;;;2.30;1.00;;;;;;5053630;28;20416;-66
2023/12/23 02:03:06;;;;;;;3.57;2.40;;;2.20;1.00;;;;;;5053703;28;20191;-67
2023/12/23 02:05:31;;;;;;;5.90;2.30;;;2.20;1.00;;;;;;5052550;28;20787;-66
2023/12/23 02:07:57;;;;;;;5.63;2.60;;;2.20;1.00;;;;;;5052379;28;20376;-69
2023/12/23 02:10:24;;;;;;;6.53;2.77;;;2.30;1.00;;;;;;5053456;28;20501;-67
2023/12/23 02:13:09;;;;;;;17.13;2.67;;;2.20;1.00;;;;;;5053310;28;20409;-65
2023/12/23 02:15:37;;;;;;;8.93;3.70;;;2.40;1.00;;;;;;5052711;28;20433;-68
2023/12/23 02:18:03;;;;;;;5.67;2.90;;;2.10;1.00;;;;;;5053278;28;20487;-66
2023/12/23 02:20:29;;;;;;;5.00;2.60;;;2.30;1.00;;;;;;5051959;28;20467;-68
2023/12/23 02:22:55;;;;;;;6.30;2.30;;;2.20;99.90;;;;;;5053295;28;20832;-68
2023/12/23 02:25:22;;;;;;;2.87;2.57;;;2.30;99.90;;;;;;5052109;28;20205;-66
2023/12/23 02:27:54;;;;;;;3.03;2.77;;;2.30;99.90;;;;;;5051406;28;21105;-66
2023/12/23 02:30:22;;;;;;;6.10;2.80;;;2.30;99.90;;;;;;5051803;28;20448;-70
2023/12/23 02:32:48;;;;;;;2.67;2.47;;;2.30;99.90;;;;;;5051972;28;20416;-66
2023/12/23 02:35:14;;;;;;;2.67;2.47;;;2.40;99.90;;;;;;5052135;28;20405;-68
2023/12/23 02:37:40;;;;;;;4.80;3.20;;;2.50;99.90;;;;;;5052092;28;20448;-69
2023/12/23 02:40:07;;;;;;;6.40;2.17;;;2.50;99.90;;;;;;5051544;28;20175;-66
2023/12/23 02:42:32;;;;;;;13.60;3.20;;;2.40;99.90;;;;;;5051649;28;20835;-67
2023/12/23 02:44:58;;;;;;;10.00;2.73;;;2.50;99.90;;;;;;5051814;28;20404;-66
2023/12/23 02:47:24;;;;;;;2.77;2.13;;;2.40;99.90;;;;;;5052641;28;20655;-66
2023/12/23 02:49:49;;;;;;;4.17;2.07;;;2.40;99.90;;;;;;5052785;28;20159;-68
2023/12/23 02:52:15;;;;;;;2.73;2.53;;;2.50;99.90;;;;;;5051911;28;20167;-71
2023/12/23 02:54:41;;;;;;;5.93;3.00;;;2.50;99.90;;;;;;5051880;28;20285;-71
2023/12/23 02:57:06;;;;;;;6.63;2.53;;;2.50;99.90;;;;;;5052040;28;20552;-70
2023/12/23 02:59:32;;;;;;;8.00;3.80;;;2.50;99.90;;;;;;5052856;28;20185;-68
2023/12/23 03:01:57;;;;;;;3.97;2.60;;;2.50;99.90;;;;;;5052468;28;20175;-70
2023/12/23 03:04:23;;;;;;;3.40;3.10;;;2.50;99.90;;;;;;5051075;28;20170;-70
2023/12/23 03:06:49;;;;;;;11.13;2.93;;;2.50;99.90;;;;;;5056385;28;20167;-67
2023/12/23 03:09:14;;;;;;;8.03;3.27;;;2.60;99.90;;;;;;5056879;28;20167;-66
2023/12/23 03:11:40;;;;;;;4.17;3.47;;;2.50;99.90;;;;;;5056833;28;20175;-70
2023/12/23 03:14:06;;;;;;;5.23;2.90;;;2.60;99.90;;;;;;5055676;28;20233;-66
2023/12/23 03:16:35;;;;;;;6.43;2.70;;;2.50;99.90;;;;;;5056074;28;20245;-70
2023/12/23 03:19:02;;;;;;;3.33;3.00;;;2.40;99.90;;;;;;5056656;28;20187;-70
2023/12/23 03:21:28;;;;;;;6.80;2.70;;;2.60;99.90;;;;;;5056286;28;20444;-66
2023/12/23 03:23:54;;;;;;;8.30;3.07;;;2.60;99.90;;;;;;5056251;28;20480;-71
2023/12/23 03:26:19;;;;;;;4.40;3.27;;;2.60;99.90;;;;;;5055603;28;20463;-66
2023/12/23 03:28:45;;;;;;;11.40;3.23;;;2.70;99.90;;;;;;5056636;28;20536;-71
2023/12/23 03:31:11;;;;;;;5.97;2.30;;;2.70;99.90;;;;;;5056025;28;20199;-67
2023/12/23 03:33:36;;;;;;;4.03;2.47;;;2.60;99.90;;;;;;5056343;28;20167;-71
2023/12/23 03:36:02;;;;;;;5.03;2.53;;;2.60;99.90;;;;;;5055815;28;20171;-69
2023/12/23 03:38:28;;;;;;;5.63;2.70;;;2.70;99.90;;;;;;5056063;28;20558;-70
2023/12/23 03:40:54;;;;;;;3.50;2.83;;;2.80;99.90;;;;;;5056052;28;20413;-67
2023/12/23 03:43:19;;;;;;;3.10;2.60;;;2.70;99.90;;;;;;5054824;28;20191;-68
2023/12/23 03:45:45;;;;;;;3.20;2.20;;;2.80;99.90;;;;;;5054653;28;20159;-70
2023/12/23 03:48:11;;;;;;;14.30;2.60;;;2.70;99.90;;;;;;5056206;28;20218;-72
2023/12/23 03:50:37;;;;;;;6.40;2.70;;;2.80;99.90;;;;;;5055940;28;20489;-67
2023/12/23 03:53:02;;;;;;;2.60;2.33;;;2.90;99.90;;;;;;5056122;28;20249;-71
2023/12/23 03:55:34;;;;;;;4.70;2.23;;;2.90;99.90;;;;;;5055204;28;20179;-73
2023/12/23 03:58:00;;;;;;;5.93;2.50;;;2.90;99.90;;;;;;5055670;28;20429;-72
2023/12/23 04:00:26;;;;;;;5.73;2.90;;;3.10;99.90;;;;;;5054713;28;20521;-72
2023/12/23 04:02:53;;;;;;;7.27;2.67;;;3.00;99.90;;;;;;5055090;28;21017;-71
2023/12/23 04:05:18;;;;;;;4.80;2.30;;;3.00;99.90;;;;;;5046672;28;20497;-71
2023/12/23 04:07:50;;;;;;;9.80;2.97;;;3.10;99.90;;;;;;5035900;28;20505;-66
2023/12/23 04:10:16;;;;;;;4.43;3.27;;;3.10;99.90;;;;;;5041068;28;20166;-68
2023/12/23 04:12:42;;;;;;;3.97;2.70;;;3.20;99.90;;;;;;5055972;28;20401;-66
2023/12/23 04:15:08;;;;;;;8.70;2.60;;;3.20;99.90;;;;;;5054692;28;20577;-72
2023/12/23 04:17:34;;;;;;;6.47;2.40;;;3.10;99.90;;;;;;5054036;28;20911;-66
2023/12/23 04:20:00;;;;;;;9.93;3.03;;;3.20;99.90;;;;;;5055348;28;20413;-72
2023/12/23 04:22:26;;;;;;;8.10;2.30;;;3.30;99.90;;;;;;5055327;28;20449;-72
2023/12/23 04:24:52;;;;;;;6.53;2.57;;;3.20;99.90;;;;;;5054691;28;20964;-73
2023/12/23 04:27:18;;;;;;;6.17;3.03;;;3.20;99.90;;;;;;5054204;28;20261;-67
2023/12/23 04:29:43;;;;;;;3.00;2.30;;;3.10;99.90;;;;;;5055226;28;20471;-71
2023/12/23 04:32:10;;;;;;;6.67;3.00;;;3.10;99.90;;;;;;5055517;28;20576;-66
2023/12/23 04:34:37;;;;;;;7.20;2.20;;;3.20;99.90;;;;;;5054454;28;20159;-67
2023/12/23 04:37:03;;;;;;;6.20;2.57;;;3.20;99.90;;;;;;5053300;28;20898;-67
2023/12/23 04:39:29;;;;;;;4.47;2.73;;;3.20;99.90;;;;;;5054223;28;20409;-71
2023/12/23 04:41:55;;;;;;;7.13;2.77;;;3.20;99.90;;;;;;5053774;28;20444;-66
2023/12/23 04:44:21;;;;;;;6.50;2.83;;;3.20;99.90;;;;;;5055222;28;20199;-67
2023/12/23 04:46:48;;;;;;;4.23;2.43;;;3.20;99.90;;;;;;5054029;28;20646;-70
2023/12/23 04:49:14;;;;;;;3.47;2.20;;;3.10;99.90;;;;;;5055179;28;20488;-73
2023/12/23 04:51:43;;;;;;;5.43;2.00;;;3.20;99.90;;;;;;5054414;28;20477;-67
2023/12/23 04:54:09;;;;;;;4.50;3.03;;;3.20;99.90;;;;;;5053938;28;20174;-72
2023/12/23 04:56:35;;;;;;;6.23;2.30;;;3.20;99.90;;;;;;5052689;28;20425;-66
2023/12/23 04:59:01;;;;;;;6.90;2.30;;;3.10;99.90;;;;;;5054612;28;20960;-73
2023/12/23 05:01:26;;;;;;;5.13;2.83;;;3.10;99.90;;;;;;5054701;28;20224;-75
2023/12/23 05:03:52;;;;;;;2.60;2.20;;;3.20;1.00;;;;;;5053622;28;20230;-71
2023/12/23 05:06:18;;;;;;;2.70;2.10;;;3.20;1.00;;;;;;5053945;28;20166;-66
2023/12/23 05:08:44;;;;;;;3.53;2.87;;;3.10;1.00;;;;;;5053511;28;20648;-67
2023/12/23 05:11:10;;;;;;;4.83;2.67;;;2.90;1.00;;;;;;5054245;28;20208;-67
2023/12/23 05:13:35;;;;;;;5.50;2.33;;;3.10;1.00;;;;;;5054258;28;20163;-70
2023/12/23 05:16:01;;;;;;;2.70;2.00;;;3.10;1.00;;;;;;5053593;28;20428;-72
2023/12/23 05:18:27;;;;;;;7.03;2.70;;;3.20;1.00;;;;;;5054501;28;20194;-73
2023/12/23 05:20:52;;;;;;;8.73;2.53;;;3.20;1.00;;;;;;5054243;28;20175;-72
2023/12/23 05:23:18;;;;;;;4.57;2.70;;;3.10;1.00;;;;;;5054481;28;20725;-72
2023/12/23 05:25:44;;;;;;;10.93;2.57;;;3.20;1.00;;;;;;5052141;28;20187;-66
2023/12/23 05:28:11;;;;;;;4.30;2.90;;;3.00;1.00;;;;;;5053546;28;20183;-69
2023/12/23 05:30:37;;;;;;;12.70;2.30;;;3.20;1.00;;;;;;5053985;28;20437;-68
2023/12/23 05:33:02;;;;;;;3.93;2.30;;;3.20;1.00;;;;;;5052747;28;21050;-67
2023/12/23 05:35:28;;;;;;;4.33;2.80;;;3.20;1.00;;;;;;5051898;28;20183;-67
2023/12/23 05:37:54;;;;;;;4.37;2.17;;;3.10;1.00;;;;;;5054099;28;20289;-72
2023/12/23 05:40:19;;;;;;;5.23;2.43;;;3.00;1.00;;;;;;5053033;28;20225;-72
2023/12/23 05:42:45;;;;;;;2.80;2.43;;;3.10;1.00;;;;;;5053583;28;20194;-67
2023/12/23 05:45:11;;;;;;;5.53;2.00;;;3.00;1.00;;;;;;5053169;28;20719;-68
2023/12/23 05:47:37;;;;;;;2.10;2.00;;;3.00;1.00;;;;;;5053648;28;20183;-71
2023/12/23 05:50:04;;;;;;;4.50;2.00;;;2.90;1.00;;;;;;5053697;28;20761;-67
2023/12/23 05:52:29;;;;;;;7.43;2.30;;;2.80;1.00;;;;;;5052355;28;20424;-67
2023/12/23 05:54:56;;;;;;;4.37;1.83;;;2.70;1.00;;;;;;5053133;28;20394;-67
2023/12/23 05:57:21;;;;;;;3.27;2.97;;;2.70;1.00;;;;;;5053470;28;20663;-72
2023/12/23 05:59:47;;;;;;;2.40;2.30;;;2.70;1.00;;;;;;5053839;28;20398;-70
2023/12/23 06:02:13;;;;;;;2.63;2.43;;;2.50;1.00;;;;;;5053335;28;20619;-68
2023/12/23 06:04:38;;;;;;;2.97;1.90;;;2.70;1.00;;;;;;5051639;28;20170;-72
2023/12/23 06:07:04;;;;;;;2.13;2.00;;;2.60;1.00;;;;;;5053428;28;20202;-70
2023/12/23 06:09:30;;;;;;;2.17;2.07;;;2.60;1.00;;;;;;5052089;28;20170;-70
2023/12/23 06:11:55;;;;;;;7.53;2.20;;;2.40;1.00;;;;;;5052161;28;20244;-71
2023/12/23 06:14:21;;;;;;;4.73;2.20;;;2.40;1.00;;;;;;5047658;28;20175;-73
2023/12/23 06:16:47;;;;;;;2.93;2.37;;;2.30;1.00;;;;;;5034787;28;20390;-72
2023/12/23 06:19:13;;;;;;;2.37;2.17;;;2.50;1.00;;;;;;5052603;28;20243;-72
2023/12/23 06:21:45;;;;;;;2.70;2.20;;;2.60;1.00;;;;;;5053146;28;20611;-72
2023/12/23 06:24:14;;;;;;;2.37;1.73;;;2.50;1.00;;;;;;5053292;28;20666;-72
2023/12/23 06:26:39;;;;;;;2.40;2.20;;;2.50;1.00;;;;;;5051808;28;20429;-72
2023/12/23 06:29:05;;;;;;;2.50;2.30;;;2.50;1.00;;;;;;5053276;28;20422;-67
2023/12/23 06:31:33;;;;;;;6.30;3.60;;;2.40;1.00;;;;;;5053254;28;20238;-67
2023/12/23 06:33:58;;;;;;;2.47;2.13;;;2.50;1.00;;;;;;5053337;28;20174;-67
2023/12/23 06:36:24;;;;;;;3.43;2.13;;;2.50;1.00;;;;;;5051689;28;20417;-73
2023/12/23 06:38:50;;;;;;;2.27;2.10;;;2.50;1.00;;;;;;5052859;28;20281;-67
2023/12/23 06:41:15;;;;;;;2.73;2.63;;;2.30;1.00;;;;;;5052308;28;20250;-67
2023/12/23 06:43:41;;;;;;;2.70;1.97;;;2.60;1.00;;;;;;5052555;28;20547;-73
2023/12/23 06:46:10;;;;;;;2.30;2.20;;;2.30;1.00;;;;;;5051162;28;20174;-70
2023/12/23 06:48:36;;;;;;;2.20;2.10;;;2.50;1.00;;;;;;5052921;28;20190;-71
2023/12/23 06:51:03;;;;;;;2.30;2.20;;;2.50;1.00;;;;;;5051789;28;20763;-69
2023/12/23 06:53:29;;;;;;;7.00;2.40;;;2.50;1.00;;;;;;5052925;28;20428;-69
2023/12/23 06:55:54;;;;;;;2.70;2.40;;;2.30;1.00;;;;;;5052295;28;20882;-72
2023/12/23 06:58:22;;;;;;;7.00;3.13;;;2.50;1.00;;;;;;5051324;28;20190;-67
2023/12/23 07:00:48;;;;;;;6.60;2.90;;;2.60;1.00;;;;;;5051628;28;20687;-67
2023/12/23 07:03:14;;;;;;;3.23;2.00;;;2.60;1.00;;;;;;5052442;28;20575;-69
2023/12/23 07:05:39;;;;;;;5.57;2.63;;;2.60;1.00;;;;;;5052256;28;20182;-67
2023/12/23 07:08:06;;;;;;;5.13;2.10;;;2.70;1.00;;;;;;5052475;28;20198;-70
2023/12/23 07:10:31;;;;;;;2.20;2.10;;;2.60;1.00;;;;;;5052881;28;20169;-68
2023/12/23 07:12:57;;;;;;;3.80;2.30;;;2.60;1.00;;;;;;5052631;28;20398;-72
2023/12/23 07:15:23;;;;;;;6.83;2.43;;;2.30;1.00;;;;;;5051780;28;20628;-71
2023/12/23 07:17:48;;;;;;;2.60;2.40;;;2.50;1.00;;;;;;5052085;28;20269;-67
2023/12/23 07:20:14;;;;;;;2.90;2.60;;;2.50;1.00;;;;;;5052498;28;20182;-72
2023/12/23 07:22:40;;;;;;;3.37;2.10;;;2.30;1.00;;;;;;5051174;28;20198;-71
2023/12/23 07:25:06;;;;;;;9.13;2.43;;;2.40;1.00;;;;;;5051894;28;20504;-71
2023/12/23 07:27:32;;;;;;;10.83;3.20;;;2.30;1.00;;;;;;5052551;28;20944;-69
2023/12/23 07:29:58;;;;;;;5.13;2.50;;;2.40;13.20;;;;;;5052567;28;20186;-72
2023/12/23 07:32:24;;;;;;;2.37;2.17;;;2.30;34.70;;;;;;5050727;28;20639;-74
2023/12/23 07:34:51;;;;;;;3.73;2.63;;;2.60;74.20;;;;;;5051866;28;20199;-71
2023/12/23 07:37:17;;;;;;;9.20;3.00;;;2.60;87.60;;;;;;5050747;28;20942;-65
2023/12/23 07:39:43;;;;;;;3.30;2.20;;;2.50;95.90;;;;;;5051639;28;20174;-69
2023/12/23 07:42:09;;;;;;;4.67;2.50;;;2.60;95.30;;;;;;5052205;28;20178;-70
2023/12/23 07:44:36;;;;;;;5.63;2.20;;;2.70;99.10;;;;;;5050090;28;20910;-72
2023/12/23 07:47:04;;;;;;;9.10;3.00;;;2.70;99.90;;;;;;5052384;28;20531;-66
2023/12/23 07:49:31;;;;;;;3.43;2.60;;;2.90;99.90;;;;;;5051106;28;20422;-64
2023/12/23 07:51:57;;;;;;;5.00;2.53;;;2.80;99.90;;;;;;5054670;28;20394;-69
2023/12/23 07:54:23;;;;;;;3.73;2.40;;;3.00;99.90;;;;;;5055256;28;20467;-73
2023/12/23 07:56:49;;;;;;;2.90;2.80;;;2.90;98.20;;;;;;5053947;28;20183;-64
2023/12/23 07:59:14;;;;;;;2.70;2.37;;;2.90;96.50;;;;;;5055894;28;20428;-64
2023/12/23 08:01:46;;;;;;;4.30;2.80;;;3.00;97.40;;;;;;5056110;28;20176;-64
2023/12/23 08:04:13;;;;;;;11.20;2.93;;;2.90;92.30;;;;;;5055991;28;20601;-66
2023/12/23 08:06:39;;;;;;;10.23;3.20;;;2.90;91.60;;;;;;5044592;28;20414;-65
2023/12/23 08:09:05;;;;;;;12.97;4.00;;;2.90;93.70;;;;;;5053017;28;20436;-64
2023/12/23 08:11:31;;;;;;;5.33;2.50;;;3.00;95.00;;;;;;5055369;28;20402;-71
2023/12/23 08:13:57;;;;;;;6.40;2.90;;;2.90;94.10;;;;;;5055414;28;20854;-67
2023/12/23 08:16:23;;;;;;;3.73;3.40;;;3.10;93.50;;;;;;5054863;28;20409;-66
2023/12/23 08:18:48;;;;;;;6.23;3.23;;;3.00;93.70;;;;;;5054807;28;20209;-70
2023/12/23 08:21:14;;;;;;;10.00;2.83;;;2.90;91.30;;;;;;5055226;28;20187;-68
2023/12/23 08:23:40;;;;;;;9.70;2.27;;;3.00;85.80;;;;;;5055691;28;20206;-65
2023/12/23 08:26:06;;;;;;;2.40;2.10;;;2.80;78.80;;;;;;5054435;28;20598;-70
2023/12/23 08:28:31;;;;;;;5.73;3.57;;;3.00;79.10;;;;;;5055301;28;20225;-68
2023/12/23 08:30:57;;;;;;;2.93;2.60;;;2.90;75.70;;;;;;5054849;28;20894;-69
2023/12/23 08:33:23;;;;;;;8.80;2.93;;;2.90;75.80;;;;;;5055438;28;20617;-69
2023/12/23 08:35:49;;;;;;;14.60;3.40;;;2.80;75.70;;;;;;5053233;28;20491;-64
2023/12/23 08:38:15;;;;;;;2.97;2.73;;;2.90;68.10;;;;;;5055021;28;20202;-64
2023/12/23 08:40:40;;;;;;;3.43;2.60;;;2.90;58.50;;;;;;5055451;28;20167;-68
2023/12/23 08:43:06;;;;;;;7.53;2.67;;;2.90;44.30;;;;;;5054992;28;20194;-71
2023/12/23 08:45:32;;;;;;;3.70;2.60;;;2.90;44.50;;;;;;5054371;28;20188;-69
2023/12/23 08:47:57;;;;;;;6.27;3.20;;;3.00;19.40;;;;;;5054409;28;20222;-69
2023/12/23 08:50:23;;;;;;;12.20;2.43;;;3.00;13.30;;;;;;5053404;28;20167;-70
2023/12/23 08:52:49;;;;;;;3.63;2.17;;;3.00;1.00;;;;;;5055262;28;20169;-68
2023/12/23 08:55:15;;;;;;;4.47;2.40;;;3.00;1.00;;;;;;5053907;28;20175;-70
2023/12/23 08:57:41;;;;;;;5.23;2.60;;;3.00;1.00;;;;;;5054422;28;20437;-65
2023/12/23 09:00:07;;;;;;;6.10;3.10;;;3.00;1.00;;;;;;5055086;28;20420;-67
2023/12/23 09:02:34;;;;;;;3.80;2.37;;;3.10;1.00;;;;;;5051748;28;20212;-64
2023/12/23 09:05:00;;;;;;;6.30;2.87;;;3.10;1.00;;;;;;5053443;28;20405;-67
2023/12/23 09:07:26;;;;;;;2.30;2.20;;;3.20;1.00;;;;;;5052895;28;20449;-65
2023/12/23 09:09:52;;;;;;;2.50;2.30;;;3.30;1.00;;;;;;5054502;28;20628;-67
2023/12/23 09:12:19;;;;;;;12.53;7.90;;;3.40;1.00;;;;;;5054174;28;20221;-67
2023/12/23 09:14:46;;;;;;;7.20;2.20;;;3.40;1.00;;;;;;5053891;28;20913;-69
2023/12/23 09:17:11;;;;;;;6.07;3.10;;;3.30;1.00;;;;;;5054267;28;20464;-71
2023/12/23 09:19:37;;;;;;;5.47;2.07;;;3.40;1.00;;;;;;5054684;28;20407;-69
2023/12/23 09:22:03;;;;;;;3.10;2.40;;;3.40;1.00;;;;;;5054253;28;20174;-66
2023/12/23 09:24:29;;;;;;;2.50;2.30;;;3.40;1.00;;;;;;5053965;28;20199;-72
2023/12/23 09:26:54;;;;;;;2.23;2.13;;;3.50;1.00;;;;;;5052489;28;20433;-70
2023/12/23 09:29:21;;;;;;;4.67;2.40;;;3.50;1.00;;;;;;5053396;28;20183;-65
2023/12/23 09:31:46;;;;;;;3.00;2.60;;;3.50;1.00;;;;;;5054156;28;20203;-67
2023/12/23 09:34:12;;;;;;;7.40;3.00;;;3.40;1.00;;;;;;5053058;28;20453;-69
2023/12/23 09:36:38;;;;;;;8.80;2.80;;;3.50;1.00;;;;;;5053416;28;20168;-69
2023/12/23 09:39:04;;;;;;;3.73;3.43;;;3.40;1.00;;;;;;5053279;28;20196;-65
2023/12/23 09:41:32;;;;;;;2.83;2.50;;;3.50;1.00;;;;;;5052512;28;20535;-65
2023/12/23 09:43:57;;;;;;;2.90;2.70;;;3.60;1.00;;;;;;5053361;28;21018;-71
2023/12/23 09:46:23;;;;;;;2.77;2.37;;;3.50;1.00;;;;;;5051801;28;20505;-68
2023/12/23 09:48:49;;;;;;;5.63;2.47;;;3.50;1.00;;;;;;5053856;28;20434;-66
2023/12/23 09:51:17;;;;;;;2.77;2.57;;;3.40;1.00;;;;;;5053673;28;20406;-70
2023/12/23 09:53:46;;;;;;;5.63;2.73;;;3.50;1.00;;;;;;5053803;28;20426;-70
2023/12/23 09:56:12;;;;;;;6.50;2.50;;;3.50;1.00;;;;;;5052514;28;20414;-71
2023/12/23 09:58:38;;;;;;;2.07;1.90;;;3.60;1.00;;;;;;5041787;28;20811;-70
2023/12/23 10:01:04;;;;;;;4.47;2.07;;;3.50;1.00;;;;;;5034104;28;20409;-65
2023/12/23 10:03:29;;;;;;;5.23;2.83;;;3.60;1.00;;;;;;5053300;28;20203;-69
2023/12/23 10:06:01;;;;;;;9.43;2.83;;;3.70;1.00;;;;;;5052777;28;20175;-69
2023/12/23 10:08:28;;;;;;;6.17;3.60;;;3.70;1.00;;;;;;5053877;28;20188;-67
2023/12/23 10:10:53;;;;;;;4.60;2.83;;;3.60;1.00;;;;;;5053652;28;20404;-68
2023/12/23 10:13:20;;;;;;;7.27;2.70;;;3.80;1.00;;;;;;5053237;28;20845;-65
2023/12/23 10:15:45;;;;;;;4.67;2.60;;;3.70;1.00;;;;;;5052590;28;20628;-69
2023/12/23 10:18:12;;;;;;;3.73;2.50;;;3.70;1.00;;;;;;5052946;28;20465;-64
2023/12/23 10:20:38;;;;;;;5.63;2.80;;;3.80;1.00;;;;;;5053479;28;20181;-66
2023/12/23 10:23:04;;;;;;;3.37;2.50;;;3.80;1.00;;;;;;5051412;28;20449;-67
2023/12/23 10:25:30;;;;;;;4.10;2.60;;;3.90;1.00;;;;;;5052599;28;20193;-65
2023/12/23 10:28:05;;;;;;;7.70;3.10;;;4.00;1.00;;;;;;5052797;28;20437;-65
2023/12/23 10:30:34;;;;;;;5.50;3.00;;;3.90;1.00;;;;;;5053370;28;20815;-68
2023/12/23 10:33:06;;;;;;;6.63;2.93;;;3.90;1.00;;;;;;5053049;28;20451;-70
2023/12/23 10:35:57;;;;;;;3.07;2.40;;;3.80;1.00;;;;;;5052425;28;20415;-69
2023/12/23 10:38:26;;;;;;;2.60;2.20;;;3.80;1.00;;;;;;5052181;28;20521;-64
2023/12/23 10:41:04;;;;;;;3.83;2.50;;;3.90;1.00;;;;;;5053141;28;20417;-64
2023/12/23 10:43:30;;;;;;;2.80;2.23;;;4.10;1.00;;;;;;5052495;28;20460;-70
2023/12/23 10:45:59;;;;;;;3.37;2.30;;;4.10;1.00;;;;;;5052199;28;20407;-64
2023/12/23 10:48:28;;;;;;;11.07;3.90;;;4.10;1.00;;;;;;5052979;28;20188;-69
2023/12/23 10:50:56;;;;;;;8.03;2.50;;;4.20;1.00;;;;;;5053026;28;21008;-70
2023/12/23 10:53:22;;;;;;;6.00;2.53;;;4.30;1.00;;;;;;5052835;28;20418;-65
2023/12/23 10:55:48;;;;;;;4.63;2.63;;;4.20;1.00;;;;;;5050510;28;20834;-65
2023/12/23 10:58:15;;;;;;;2.67;2.43;;;4.40;1.00;;;;;;5051254;28;20444;-65
2023/12/23 11:00:43;;;;;;;4.50;2.77;;;4.40;1.00;;;;;;5051561;28;20183;-68
2023/12/23 11:03:11;;;;;;;2.30;2.10;;;4.60;1.00;;;;;;5051311;28;20521;-70
2023/12/23 11:05:39;;;;;;;7.00;3.40;;;4.40;1.00;;;;;;5051084;28;20417;-67
2023/12/23 11:08:11;;;;;;;4.50;2.80;;;4.40;1.00;;;;;;5052686;28;20924;-70
2023/12/23 11:10:38;;;;;;;4.23;2.30;;;4.50;1.00;;;;;;5052857;28;20467;-67
2023/12/23 11:13:04;;;;;;;4.40;2.70;;;4.40;1.00;;;;;;5048664;28;20447;-72
2023/12/23 11:15:30;;;;;;;6.93;2.60;;;4.60;1.00;;;;;;5036856;28;20496;-68
2023/12/23 11:17:57;;;;;;;2.83;2.50;;;4.70;1.00;;;;;;5040176;28;20464;-64
2023/12/23 11:20:31;;;;;;;3.67;3.37;;;4.70;1.00;;;;;;5052059;28;20176;-65
2023/12/23 11:23:00;;;;;;;7.60;2.83;;;4.70;1.00;;;;;;5052246;28;20489;-64
2023/12/23 11:25:37;;;;;;;4.97;2.67;;;4.70;1.00;;;;;;5049865;28;20424;-72
2023/12/23 11:28:10;;;;;;;4.33;2.90;;;4.70;1.00;;;;;;5054336;28;20473;-70
2023/12/23 11:30:56;;;;;;;9.07;3.10;;;4.70;1.00;;;;;;5052948;28;20434;-71
2023/12/23 11:33:26;;;;;;;5.33;2.70;;;4.60;1.00;;;;;;5058444;28;20445;-65
2023/12/23 11:35:59;;;;;;;4.90;2.80;;;4.60;1.00;;;;;;5035125;28;20413;-65
2023/12/23 11:38:43;;;;;;;7.03;3.10;;;4.70;1.00;;;;;;5035107;28;20981;-69
2023/12/23 11:41:10;;;;;;;8.93;4.07;;;4.70;1.00;;;;;;5042229;28;20451;-70
2023/12/23 11:43:37;;;;;;;9.23;2.60;;;4.70;1.00;;;;;;5063692;28;20897;-64
2023/12/23 11:46:02;;;;;;;3.43;2.20;;;4.60;1.00;;;;;;5046824;28;20795;-65
2023/12/23 11:48:28;;;;;;;5.20;3.80;;;4.70;1.00;;;;;;5036344;28;20437;-64
2023/12/23 11:50:56;;;;;;;10.47;2.70;;;4.60;1.00;;;;;;5035870;28;20203;-69
2023/12/23 11:53:22;;;;;;;6.60;2.60;;;4.70;1.00;;;;;;5038526;28;20569;-70
2023/12/23 11:55:48;;;;;;;5.00;2.40;;;4.60;1.00;;;;;;5052657;28;20420;-65
2023/12/23 11:58:16;;;;;;;5.53;2.93;;;4.70;1.00;;;;;;5060949;28;20932;-65
2023/12/23 12:00:42;;;;;;;5.43;2.33;;;4.70;1.00;;;;;;5049961;28;20190;-69
2023/12/23 12:03:10;;;;;;;5.73;3.47;;;4.70;1.00;;;;;;5037874;28;20537;-65
2023/12/23 12:05:35;;;;;;;3.93;2.57;;;4.60;1.00;;;;;;5055197;28;20883;-66
2023/12/23 12:08:01;;;;;;;6.03;3.03;;;4.60;1.00;;;;;;5045547;28;20459;-64
2023/12/23 12:10:27;;;;;;;3.87;2.63;;;4.70;1.00;;;;;;5054501;28;20300;-64
2023/12/23 12:12:53;;;;;;;5.63;2.90;;;4.70;1.00;;;;;;5044735;28;20980;-69
2023/12/23 12:15:19;;;;;;;3.20;2.47;;;4.70;1.00;;;;;;5052287;28;20182;-64
2023/12/23 12:17:44;;;;;;;3.83;2.87;;;4.70;1.00;;;;;;5035981;28;20191;-66
2023/12/23 12:20:10;;;;;;;2.63;2.43;;;4.70;1.00;;;;;;5034776;28;20432;-66
2023/12/23 12:22:43;;;;;;;2.57;2.37;;;4.70;1.00;;;;;;5039747;28;20182;-71
2023/12/23 12:25:08;;;;;;;3.47;2.70;;;4.70;1.00;;;;;;5054128;28;20432;-66
2023/12/23 12:27:34;;;;;;;4.30;2.90;;;4.70;1.00;;;;;;5053486;28;20444;-69
2023/12/23 12:30:00;;;;;;;3.73;2.67;;;4.70;1.00;;;;;;5054987;28;20171;-64
2023/12/23 12:32:26;;;;;;;3.33;3.03;;;4.70;1.00;;;;;;5050680;28;20177;-69
2023/12/23 12:35:03;;;;;;;5.17;2.70;;;4.70;1.00;;;;;;5054339;28;20181;-67
2023/12/23 12:37:29;;;;;;;4.53;2.27;;;4.70;1.00;;;;;;5054084;28;20181;-71
2023/12/23 12:39:55;;;;;;;5.10;2.40;;;4.70;1.00;;;;;;5049979;28;20432;-64
2023/12/23 12:42:23;;;;;;;7.43;2.67;;;4.60;1.00;;;;;;5055166;28;20754;-67
2023/12/23 12:44:48;;;;;;;3.40;2.30;;;4.60;1.00;;;;;;5054127;28;20992;-67
2023/12/23 12:47:14;;;;;;;4.37;2.23;;;4.70;1.00;;;;;;5053837;28;20520;-65
2023/12/23 12:49:46;;;;;;;2.20;2.10;;;4.70;1.00;;;;;;5054808;28;20532;-66
2023/12/23 12:52:12;;;;;;;3.30;2.00;;;4.70;1.00;;;;;;5054934;28;20180;-70
2023/12/23 12:54:38;;;;;;;8.40;2.90;;;4.70;1.00;;;;;;5054021;28;20504;-70
2023/12/23 12:57:05;;;;;;;2.60;2.40;;;4.80;1.00;;;;;;5054697;28;20415;-66
2023/12/23 12:59:30;;;;;;;4.27;2.50;;;4.70;1.00;;;;;;5050446;28;20194;-70